Time;durP1;ratioP1;P1;durP2;ratioP2;P2;SDS_P1;SDS_P2;PMS_P1;PMS_P2;Temp;Humidity;BMP_temperature;BMP_pressure;BME280_temperature;BME280_humidity;BME280_pressure;Samples;Min_cycle;Max_cycle;Signal;HPM_P1;HPM_P2
2021/05/30 00:01:50;;;;;;;2.78;1.55;;;410.00;1433.60;;;;;;5054439;28;20037;-58
2021/05/30 00:04:16;;;;;;;2.50;1.50;;;409.90;1433.60;;;;;;5036808;28;20401;-58
2021/05/30 00:06:42;;;;;;;4.53;1.60;;;410.00;1433.60;;;;;;5054500;28;20037;-59
2021/05/30 00:09:08;;;;;;;3.63;1.65;;;409.90;1433.60;;;;;;5054504;28;20032;-58
2021/05/30 00:11:34;;;;;;;2.00;1.50;;;409.90;1433.60;;;;;;5054872;28;20021;-58
2021/05/30 00:14:02;;;;;;;2.10;1.60;;;409.80;1433.60;;;;;;5054623;28;20021;-57
2021/05/30 00:16:27;;;;;;;2.40;1.60;;;409.80;1459.20;;;;;;5054138;28;20024;-58
2021/05/30 00:18:54;;;;;;;2.17;1.50;;;409.80;1459.20;;;;;;5054429;28;20023;-58
2021/05/30 00:21:19;;;;;;;2.88;1.50;;;409.80;1459.20;;;;;;5054569;28;20095;-58
2021/05/30 00:23:45;;;;;;;2.80;1.80;;;409.80;1459.20;;;;;;5054633;28;20091;-58
2021/05/30 00:26:12;;;;;;;3.33;1.67;;;409.70;1459.20;;;;;;5054112;28;20033;-58
2021/05/30 00:28:38;;;;;;;2.28;1.50;;;409.70;1459.20;;;;;;5053966;28;20029;-58
2021/05/30 00:31:03;;;;;;;2.58;1.40;;;409.70;1484.80;;;;;;5054205;28;20176;-58
2021/05/30 00:33:29;;;;;;;2.25;1.63;;;409.70;1484.80;;;;;;5053906;28;20348;-58
2021/05/30 00:35:55;;;;;;;2.72;1.70;;;409.70;1484.80;;;;;;5053920;28;20037;-59
2021/05/30 00:38:21;;;;;;;4.97;1.80;;;409.60;1484.80;;;;;;5054339;28;20020;-59
2021/05/30 00:40:46;;;;;;;2.95;1.85;;;409.60;1484.80;;;;;;5054307;28;20033;-59
2021/05/30 00:43:12;;;;;;;2.53;1.67;;;384.80;1459.20;;;;;;5053914;28;20016;-60
2021/05/30 00:45:38;;;;;;;3.22;1.65;;;384.90;1459.20;;;;;;5053855;28;20025;-58
2021/05/30 00:48:04;;;;;;;2.97;1.50;;;384.90;1459.20;;;;;;5053559;28;20485;-58
2021/05/30 00:50:30;;;;;;;2.05;1.50;;;384.80;1459.20;;;;;;5053691;28;20374;-59
2021/05/30 00:52:57;;;;;;;3.97;1.50;;;384.80;1484.80;;;;;;5053781;28;20036;-59
2021/05/30 00:55:24;;;;;;;4.50;1.67;;;384.80;1484.80;;;;;;5054058;28;20078;-59
2021/05/30 00:57:51;;;;;;;1.80;1.48;;;384.70;1484.80;;;;;;5053643;28;20467;-58
2021/05/30 01:00:17;;;;;;;2.28;1.40;;;384.70;1484.80;;;;;;5053899;28;20036;-57
2021/05/30 01:02:43;;;;;;;2.30;1.50;;;384.60;1484.80;;;;;;5053740;28;20062;-59
2021/05/30 01:05:10;;;;;;;3.25;1.60;;;384.60;1484.80;;;;;;5053560;28;20108;-58
2021/05/30 01:07:45;;;;;;;2.40;1.50;;;384.60;1510.40;;;;;;5053478;28;20037;-58
2021/05/30 01:10:18;;;;;;;1.92;1.40;;;384.60;1510.40;;;;;;5053794;28;20066;-59
2021/05/30 01:12:46;;;;;;;3.20;1.88;;;384.60;1510.40;;;;;;5053601;28;20021;-59
2021/05/30 01:15:13;;;;;;;2.78;1.60;;;384.50;1510.40;;;;;;5053298;28;20029;-59
2021/05/30 01:17:40;;;;;;;3.08;1.73;;;384.50;1510.40;;;;;;5053117;28;20032;-59
2021/05/30 01:20:10;;;;;;;2.53;1.60;;;384.50;1510.40;;;;;;5053228;28;20425;-59
2021/05/30 01:22:37;;;;;;;2.40;1.70;;;384.50;1536.00;;;;;;5048716;28;20104;-58
2021/05/30 01:25:04;;;;;;;2.30;1.70;;;384.40;1536.00;;;;;;5053181;28;20017;-58
2021/05/30 01:27:31;;;;;;;4.90;1.73;;;384.30;1536.00;;;;;;5052104;28;20509;-57
2021/05/30 01:29:56;;;;;;;2.38;1.50;;;384.30;1536.00;;;;;;5036109;28;20036;-58
2021/05/30 01:32:22;;;;;;;2.15;1.55;;;384.20;1561.60;;;;;;5054271;28;20033;-58
2021/05/30 01:34:48;;;;;;;4.57;1.50;;;384.20;1536.00;;;;;;5054032;28;20028;-58
2021/05/30 01:37:14;;;;;;;3.78;1.65;;;384.20;1561.60;;;;;;5054505;28;20032;-58
2021/05/30 01:39:39;;;;;;;2.97;1.70;;;384.20;1561.60;;;;;;5054108;28;20565;-58
2021/05/30 01:42:06;;;;;;;3.30;1.80;;;384.10;1561.60;;;;;;5054353;28;20082;-58
2021/05/30 01:44:32;;;;;;;2.85;1.30;;;384.10;1561.60;;;;;;5054264;28;20381;-59
2021/05/30 01:46:58;;;;;;;2.22;1.70;;;384.10;1587.20;;;;;;5054033;28;20061;-59
2021/05/30 01:49:23;;;;;;;3.22;1.65;;;384.10;1587.20;;;;;;5053543;28;20072;-58
2021/05/30 01:51:49;;;;;;;2.50;1.58;;;384.10;1587.20;;;;;;5053879;28;20029;-58
2021/05/30 01:54:18;;;;;;;3.38;1.80;;;384.10;1587.20;;;;;;5054179;28;20049;-58
2021/05/30 01:56:56;;;;;;;2.00;1.63;;;384.00;1587.20;;;;;;5054064;28;20033;-58
2021/05/30 01:59:27;;;;;;;3.70;1.60;;;384.00;1612.80;;;;;;5053839;28;20025;-59
2021/05/30 02:01:55;;;;;;;2.90;1.67;;;384.00;1612.80;;;;;;5053794;28;20166;-59
2021/05/30 02:04:24;;;;;;;3.20;1.90;;;384.00;1612.80;;;;;;5053980;28;20111;-58
2021/05/30 02:06:50;;;;;;;2.80;1.50;;;359.30;1612.80;;;;;;5053859;28;20044;-58
2021/05/30 02:09:17;;;;;;;3.10;1.67;;;359.30;1612.80;;;;;;5053714;28;20017;-58
2021/05/30 02:11:43;;;;;;;3.28;1.50;;;359.30;1612.80;;;;;;5053763;28;20025;-58
2021/05/30 02:14:09;;;;;;;1.95;1.38;;;359.30;1638.40;;;;;;5035523;28;20226;-58
2021/05/30 02:16:36;;;;;;;2.55;1.70;;;359.30;1638.40;;;;;;5053814;28;20091;-58
2021/05/30 02:19:02;;;;;;;3.03;1.70;;;359.30;1638.40;;;;;;5053630;28;20021;-58
2021/05/30 02:21:41;;;;;;;2.47;1.58;;;359.30;1638.40;;;;;;5053645;28;20028;-59
2021/05/30 02:24:07;;;;;;;2.80;1.60;;;359.20;1638.40;;;;;;5053134;28;20108;-59
2021/05/30 02:26:33;;;;;;;2.75;1.63;;;359.20;1638.40;;;;;;5053569;28;20039;-58
2021/05/30 02:28:58;;;;;;;3.35;1.80;;;359.10;1664.00;;;;;;5053686;28;20029;-59
2021/05/30 02:31:24;;;;;;;2.92;1.55;;;359.10;1664.00;;;;;;5053419;28;20108;-59
2021/05/30 02:33:50;;;;;;;1.92;1.50;;;359.00;1664.00;;;;;;5053680;28;20481;-58
2021/05/30 02:36:16;;;;;;;2.63;1.80;;;359.00;1664.00;;;;;;5053238;28;20060;-59
2021/05/30 02:38:41;;;;;;;2.10;1.52;;;358.90;1689.60;;;;;;5057321;28;20021;-58
2021/05/30 02:41:07;;;;;;;2.67;1.60;;;358.80;1689.60;;;;;;5060328;28;20028;-59
2021/05/30 02:43:33;;;;;;;2.67;1.50;;;358.70;1689.60;;;;;;5042110;28;20044;-58
2021/05/30 02:45:59;;;;;;;3.15;1.55;;;358.70;1715.20;;;;;;5060034;28;20040;-59
2021/05/30 02:48:24;;;;;;;2.47;1.42;;;358.70;1715.20;;;;;;5059903;28;20390;-58
2021/05/30 02:50:59;;;;;;;2.65;1.60;;;358.60;1715.20;;;;;;5059898;28;20025;-58
2021/05/30 02:53:32;;;;;;;1.95;1.67;;;358.60;1740.80;;;;;;5060080;28;20056;-58
2021/05/30 02:55:59;;;;;;;3.20;1.55;;;358.50;1740.80;;;;;;5059919;28;20029;-59
2021/05/30 02:58:26;;;;;;;3.42;1.77;;;358.50;1766.40;;;;;;5059922;28;20033;-59
2021/05/30 03:00:53;;;;;;;2.97;1.80;;;358.40;1766.40;;;;;;5060110;28;20020;-59
2021/05/30 03:03:18;;;;;;;3.28;1.70;;;358.40;1766.40;;;;;;5059604;28;20079;-59
2021/05/30 03:05:44;;;;;;;3.33;1.80;;;358.40;1766.40;;;;;;5060092;28;20490;-59
2021/05/30 03:08:10;;;;;;;2.50;1.90;;;333.70;1792.00;;;;;;5059943;28;20033;-59
2021/05/30 03:10:36;;;;;;;3.58;1.70;;;333.70;1792.00;;;;;;5059793;28;20043;-59
2021/05/30 03:13:02;;;;;;;2.50;1.80;;;333.70;1817.60;;;;;;5059700;28;20107;-59
2021/05/30 03:15:29;;;;;;;2.30;1.65;;;333.60;1817.60;;;;;;5059683;28;20024;-59
2021/05/30 03:17:55;;;;;;;3.63;1.73;;;333.60;1817.60;;;;;;5059943;28;20059;-59
2021/05/30 03:20:21;;;;;;;3.08;1.65;;;333.60;1817.60;;;;;;5059954;28;20017;-59
2021/05/30 03:22:46;;;;;;;3.17;1.60;;;333.60;1817.60;;;;;;5059675;28;20488;-58
2021/05/30 03:25:13;;;;;;;2.33;1.60;;;333.60;1843.20;;;;;;5059603;28;20049;-59
2021/05/30 03:27:40;;;;;;;3.28;1.70;;;333.60;1843.20;;;;;;5059757;28;20139;-59
2021/05/30 03:30:08;;;;;;;2.50;1.63;;;333.60;1817.60;;;;;;5059642;28;20021;-58
2021/05/30 03:32:34;;;;;;;2.45;1.80;;;333.60;1843.20;;;;;;5059513;28;20021;-58
2021/05/30 03:35:00;;;;;;;2.83;1.70;;;333.60;1843.20;;;;;;5059736;28;20075;-58
2021/05/30 03:37:26;;;;;;;3.17;1.80;;;333.70;1817.60;;;;;;5059682;28;20020;-58
2021/05/30 03:39:56;;;;;;;2.53;1.73;;;333.70;1843.20;;;;;;5059529;28;20021;-59
2021/05/30 03:42:27;;;;;;;3.25;1.63;;;333.60;1843.20;;;;;;5059445;28;20033;-59
2021/05/30 03:44:56;;;;;;;2.55;1.60;;;333.70;1843.20;;;;;;5041707;28;20028;-58
2021/05/30 03:47:22;;;;;;;3.85;1.90;;;333.70;1817.60;;;;;;5059248;28;20040;-58
2021/05/30 03:49:47;;;;;;;2.10;1.52;;;333.70;1843.20;;;;;;5057444;28;20025;-58
2021/05/30 03:52:13;;;;;;;4.80;1.60;;;333.70;1817.60;;;;;;5056514;28;20032;-58
2021/05/30 03:54:39;;;;;;;2.22;1.70;;;333.70;1843.20;;;;;;5056546;28;20359;-58
2021/05/30 03:57:05;;;;;;;2.70;1.70;;;333.70;1843.20;;;;;;5056267;28;20120;-58
2021/05/30 03:59:30;;;;;;;4.85;1.75;;;358.40;1843.20;;;;;;5056196;28;20041;-58
2021/05/30 04:01:56;;;;;;;3.35;1.75;;;358.40;1843.20;;;;;;5056277;28;20473;-58
2021/05/30 04:04:22;;;;;;;2.13;1.70;;;358.40;1843.20;;;;;;5056247;28;20025;-58
2021/05/30 04:06:47;;;;;;;3.05;1.63;;;358.40;1843.20;;;;;;5056368;28;20037;-58
2021/05/30 04:09:13;;;;;;;2.83;1.55;;;358.50;1843.20;;;;;;5056260;28;20025;-58
2021/05/30 04:11:39;;;;;;;2.50;1.90;;;358.50;1843.20;;;;;;5056181;28;20035;-58
2021/05/30 04:14:04;;;;;;;2.33;1.85;;;358.50;1843.20;;;;;;5055997;28;20103;-58
2021/05/30 04:16:30;;;;;;;3.45;1.70;;;358.50;1817.60;;;;;;5055928;28;20451;-58
2021/05/30 04:18:56;;;;;;;2.88;1.70;;;358.60;1817.60;;;;;;5055696;28;20025;-58
2021/05/30 04:21:22;;;;;;;2.40;1.73;;;358.60;1843.20;;;;;;5055856;28;20527;-58
2021/05/30 04:23:47;;;;;;;2.55;1.67;;;358.60;1843.20;;;;;;5055715;28;20058;-58
2021/05/30 04:26:13;;;;;;;3.28;1.77;;;358.60;1843.20;;;;;;5037709;28;20040;-58
2021/05/30 04:28:39;;;;;;;3.13;1.95;;;358.70;1817.60;;;;;;5055637;28;20029;-58
2021/05/30 04:31:05;;;;;;;2.70;1.60;;;358.70;1817.60;;;;;;5055532;28;20025;-58
2021/05/30 04:33:30;;;;;;;3.10;1.90;;;358.70;1817.60;;;;;;5055133;28;20438;-59
2021/05/30 04:35:56;;;;;;;2.60;1.90;;;358.70;1817.60;;;;;;5034320;28;20041;-58
2021/05/30 04:38:22;;;;;;;2.65;1.90;;;358.70;1817.60;;;;;;5035604;28;20029;-58
2021/05/30 04:40:48;;;;;;;2.55;1.80;;;358.70;1817.60;;;;;;5035527;28;20018;-58
2021/05/30 04:43:15;;;;;;;2.75;1.80;;;358.70;1817.60;;;;;;5035249;28;20026;-58
2021/05/30 04:45:40;;;;;;;2.40;1.75;;;358.80;1817.60;;;;;;5035442;28;20030;-58
2021/05/30 04:48:06;;;;;;;2.40;1.80;;;358.80;1817.60;;;;;;5035176;28;20596;-58
2021/05/30 04:50:32;;;;;;;3.80;1.95;;;358.90;1792.00;;;;;;5035398;28;20022;-58
2021/05/30 04:52:58;;;;;;;3.33;1.70;;;358.90;1792.00;;;;;;5035478;28;20109;-59
2021/05/30 04:55:24;;;;;;;2.42;1.75;;;358.90;1792.00;;;;;;5035485;28;20094;-58
2021/05/30 04:57:50;;;;;;;3.25;1.90;;;358.90;1792.00;;;;;;5035114;28;20359;-58
2021/05/30 05:00:16;;;;;;;3.65;2.00;;;358.90;1792.00;;;;;;5035283;28;20032;-58
2021/05/30 05:02:42;;;;;;;4.25;2.60;;;358.90;1766.40;;;;;;5033785;28;20135;-58
2021/05/30 05:05:12;;;;;;;3.25;1.80;;;359.00;1792.00;;;;;;5034956;28;20360;-58
2021/05/30 05:07:40;;;;;;;3.50;2.20;;;359.00;1766.40;;;;;;5035202;28;20183;-58
2021/05/30 05:10:08;;;;;;;2.33;1.80;;;359.00;1766.40;;;;;;5033757;28;20467;-58
2021/05/30 05:12:34;;;;;;;3.17;2.30;;;359.00;1766.40;;;;;;5034018;28;20475;-58
2021/05/30 05:15:00;;;;;;;4.72;1.90;;;359.10;1766.40;;;;;;5035017;28;20080;-58
2021/05/30 05:17:26;;;;;;;3.35;1.90;;;359.20;1766.40;;;;;;5034639;28;20025;-58
2021/05/30 05:19:52;;;;;;;2.97;1.80;;;359.20;1766.40;;;;;;5034714;28;20025;-59
2021/05/30 05:22:18;;;;;;;2.50;1.92;;;359.20;1766.40;;;;;;5033483;28;20021;-58
2021/05/30 05:24:44;;;;;;;3.83;1.98;;;359.20;1766.40;;;;;;5034637;28;20174;-59
2021/05/30 05:27:10;;;;;;;3.58;2.00;;;359.30;1766.40;;;;;;5034504;28;20108;-58
2021/05/30 05:29:36;;;;;;;2.33;1.67;;;359.30;1766.40;;;;;;5034506;28;20060;-58
2021/05/30 05:32:03;;;;;;;2.50;1.80;;;384.00;1766.40;;;;;;5034243;28;20057;-58
2021/05/30 05:34:28;;;;;;;3.45;2.20;;;384.00;1740.80;;;;;;5034541;28;20375;-58
2021/05/30 05:36:54;;;;;;;2.35;1.80;;;384.20;1740.80;;;;;;5051979;28;20048;-58
2021/05/30 05:39:20;;;;;;;3.95;2.10;;;384.30;1740.80;;;;;;5054354;28;20025;-58
2021/05/30 05:41:48;;;;;;;3.05;1.90;;;384.30;1740.80;;;;;;5054277;28;20024;-58
2021/05/30 05:44:14;;;;;;;3.13;1.90;;;384.30;1740.80;;;;;;5054124;28;20040;-58
2021/05/30 05:46:39;;;;;;;3.13;1.95;;;384.40;1740.80;;;;;;5054157;28;20040;-58
2021/05/30 05:49:05;;;;;;;3.55;2.15;;;384.40;1715.20;;;;;;5053921;28;20027;-58
2021/05/30 05:51:31;;;;;;;4.65;1.88;;;384.50;1715.20;;;;;;5054011;28;20099;-58
2021/05/30 05:53:56;;;;;;;2.65;2.03;;;384.50;1715.20;;;;;;5054212;28;20112;-57
2021/05/30 05:56:22;;;;;;;4.00;1.83;;;384.60;1740.80;;;;;;5054076;28;20025;-58
2021/05/30 05:58:48;;;;;;;2.50;1.90;;;384.70;1715.20;;;;;;5053809;28;20021;-58
2021/05/30 06:01:14;;;;;;;3.10;2.13;;;384.70;1689.60;;;;;;5053923;28;20459;-58
2021/05/30 06:03:39;;;;;;;3.55;2.10;;;384.80;1715.20;;;;;;5053663;28;20048;-58
2021/05/30 06:06:05;;;;;;;2.80;1.80;;;384.90;1715.20;;;;;;5053815;28;20040;-58
2021/05/30 06:08:31;;;;;;;2.55;1.90;;;409.60;1715.20;;;;;;5053910;28;20025;-57
2021/05/30 06:10:57;;;;;;;4.32;2.35;;;409.60;1689.60;;;;;;5053960;28;20029;-58
2021/05/30 06:13:23;;;;;;;3.50;2.17;;;409.70;1689.60;;;;;;5053329;28;20028;-58
2021/05/30 06:15:49;;;;;;;3.55;2.05;;;409.80;1689.60;;;;;;5053922;28;20036;-58
2021/05/30 06:18:16;;;;;;;4.80;2.60;;;409.90;1689.60;;;;;;5053489;28;20025;-58
2021/05/30 06:20:45;;;;;;;4.22;2.40;;;409.90;1664.00;;;;;;5053793;28;20025;-57
2021/05/30 06:23:12;;;;;;;2.70;2.10;;;410.00;1664.00;;;;;;5053734;28;20075;-58
2021/05/30 06:25:38;;;;;;;2.83;2.00;;;410.10;1638.40;;;;;;5053580;28;20021;-58
2021/05/30 06:28:04;;;;;;;3.17;1.83;;;410.10;1612.80;;;;;;5053183;28;20143;-57
2021/05/30 06:30:34;;;;;;;3.17;1.70;;;410.20;1638.40;;;;;;5053610;28;20036;-57
2021/05/30 06:33:00;;;;;;;4.85;2.30;;;410.40;1587.20;;;;;;5053269;28;20554;-58
2021/05/30 06:35:28;;;;;;;2.88;2.05;;;410.40;1561.60;;;;;;5053472;28;20135;-58
2021/05/30 06:37:54;;;;;;;4.97;2.00;;;410.40;1561.60;;;;;;5053522;28;20087;-58
2021/05/30 06:40:20;;;;;;;4.53;1.90;;;435.20;1587.20;;;;;;5053315;28;20025;-58
2021/05/30 06:42:46;;;;;;;3.25;2.05;;;435.30;1536.00;;;;;;5052952;28;20456;-58
2021/05/30 06:45:13;;;;;;;2.45;1.70;;;435.40;1536.00;;;;;;5053168;28;20025;-57
2021/05/30 06:47:38;;;;;;;2.85;1.85;;;435.50;1510.40;;;;;;5053366;28;20043;-57
2021/05/30 06:50:05;;;;;;;2.58;1.90;;;435.60;1510.40;;;;;;5053397;28;20103;-57
2021/05/30 06:52:30;;;;;;;3.67;2.40;;;435.70;1561.60;;;;;;5053357;28;20025;-58
2021/05/30 06:54:56;;;;;;;3.17;2.33;;;435.80;1536.00;;;;;;5035114;28;20558;-58
2021/05/30 06:57:22;;;;;;;3.40;2.50;;;435.80;1484.80;;;;;;5053440;28;20075;-58
2021/05/30 06:59:48;;;;;;;4.15;1.90;;;436.00;1484.80;;;;;;5053224;28;20028;-57
2021/05/30 07:02:15;;;;;;;4.20;1.90;;;436.00;1484.80;;;;;;5035130;28;20033;-58
2021/05/30 07:04:41;;;;;;;2.75;2.00;;;436.10;1484.80;;;;;;5053169;28;20036;-59
2021/05/30 07:07:07;;;;;;;2.65;2.00;;;436.10;1484.80;;;;;;5053410;28;20037;-59
2021/05/30 07:09:32;;;;;;;3.22;1.88;;;460.80;1484.80;;;;;;5053088;28;20025;-58
2021/05/30 07:11:58;;;;;;;2.50;1.80;;;460.80;1484.80;;;;;;5053379;28;20033;-58
2021/05/30 07:14:24;;;;;;;3.35;2.00;;;460.80;1510.40;;;;;;5053028;28;20536;-57
2021/05/30 07:16:52;;;;;;;3.65;2.00;;;461.00;1484.80;;;;;;5035046;28;20037;-57
2021/05/30 07:19:18;;;;;;;4.25;1.80;;;461.00;1433.60;;;;;;5052796;28;20021;-58
2021/05/30 07:21:44;;;;;;;2.45;1.90;;;461.10;1459.20;;;;;;5053115;28;20032;-58
2021/05/30 07:24:09;;;;;;;2.25;1.73;;;461.30;1459.20;;;;;;5053358;28;20526;-58
2021/05/30 07:26:37;;;;;;;2.90;1.85;;;461.40;1433.60;;;;;;5056473;28;20040;-58
2021/05/30 07:29:04;;;;;;;6.00;2.05;;;461.50;1408.00;;;;;;5056587;28;20029;-58
2021/05/30 07:31:29;;;;;;;3.60;1.80;;;461.40;1433.60;;;;;;5056597;28;20033;-58
2021/05/30 07:33:55;;;;;;;4.03;1.85;;;461.60;1433.60;;;;;;5056599;28;20021;-58
2021/05/30 07:36:21;;;;;;;5.65;1.90;;;461.70;1459.20;;;;;;5056404;28;20057;-58
2021/05/30 07:38:46;;;;;;;3.00;1.80;;;486.50;1433.60;;;;;;5056652;28;20025;-59
2021/05/30 07:41:13;;;;;;;3.90;1.90;;;486.60;1433.60;;;;;;5056261;28;20470;-58
2021/05/30 07:43:39;;;;;;;4.82;1.90;;;486.70;1382.40;;;;;;5056358;28;20025;-58
2021/05/30 07:46:05;;;;;;;2.65;1.80;;;486.80;1356.80;;;;;;5056301;28;20025;-58
2021/05/30 07:48:30;;;;;;;3.03;1.75;;;487.00;1356.80;;;;;;5056230;28;20428;-58
2021/05/30 07:50:56;;;;;;;2.20;1.70;;;487.20;1356.80;;;;;;5056473;28;20079;-58
2021/05/30 07:53:22;;;;;;;2.20;1.55;;;487.20;1331.20;;;;;;5056487;28;20037;-58
2021/05/30 07:55:48;;;;;;;4.55;1.77;;;487.30;1331.20;;;;;;5056150;28;20454;-58
2021/05/30 07:58:15;;;;;;;3.40;1.75;;;512.10;1305.60;;;;;;5056554;28;20025;-58
2021/05/30 08:00:41;;;;;;;2.40;1.80;;;487.30;1305.60;;;;;;5056376;28;20370;-59
2021/05/30 08:03:07;;;;;;;3.58;1.60;;;487.20;1305.60;;;;;;5055964;28;20027;-58
2021/05/30 08:05:32;;;;;;;2.88;1.70;;;512.00;1228.80;;;;;;5055916;28;20025;-59
2021/05/30 08:07:58;;;;;;;2.47;1.73;;;512.30;1203.20;;;;;;5055847;28;20029;-58
2021/05/30 08:10:26;;;;;;;2.22;1.58;;;512.50;1177.60;;;;;;5037899;28;20036;-58
2021/05/30 08:12:52;;;;;;;3.63;1.58;;;512.40;1152.00;;;;;;5056086;28;20032;-59
2021/05/30 08:15:19;;;;;;;2.42;1.50;;;512.60;1126.40;;;;;;5056092;28;20025;-60
2021/05/30 08:17:46;;;;;;;2.38;1.70;;;512.80;1152.00;;;;;;5055776;28;20054;-59
2021/05/30 08:20:13;;;;;;;2.60;1.67;;;537.60;1152.00;;;;;;5038034;28;20032;-58
2021/05/30 08:22:39;;;;;;;2.80;1.70;;;537.70;1177.60;;;;;;5056060;28;20413;-58
2021/05/30 08:25:06;;;;;;;3.67;1.83;;;537.80;1152.00;;;;;;5055939;28;20024;-59
2021/05/30 08:27:32;;;;;;;3.15;1.80;;;537.70;1152.00;;;;;;5055330;28;20037;-58
2021/05/30 08:29:58;;;;;;;2.60;1.77;;;537.90;1152.00;;;;;;5037856;28;20041;-59
2021/05/30 08:32:24;;;;;;;2.58;1.80;;;538.10;1126.40;;;;;;5055445;28;20207;-59
2021/05/30 08:34:50;;;;;;;3.40;1.90;;;538.40;1126.40;;;;;;5055214;28;20017;-58
2021/05/30 08:37:18;;;;;;;2.47;1.60;;;538.40;1126.40;;;;;;5055359;28;20106;-60
2021/05/30 08:39:45;;;;;;;3.65;2.00;;;538.40;1126.40;;;;;;5055334;28;20071;-59
2021/05/30 08:42:10;;;;;;;3.47;1.85;;;538.50;1100.80;;;;;;5055366;28;20032;-59
2021/05/30 08:44:36;;;;;;;4.25;2.00;;;563.50;1126.40;;;;;;5055340;28;20021;-59
2021/05/30 08:47:02;;;;;;;3.30;1.70;;;563.50;1126.40;;;;;;5054892;28;20036;-59
2021/05/30 08:49:28;;;;;;;2.75;1.70;;;563.70;1126.40;;;;;;5037116;28;20466;-59
2021/05/30 08:51:54;;;;;;;2.25;1.70;;;564.00;1100.80;;;;;;5055505;28;20106;-59
2021/05/30 08:54:21;;;;;;;2.42;1.73;;;588.80;1075.20;;;;;;5055502;28;20454;-59
2021/05/30 08:56:49;;;;;;;2.85;1.73;;;589.00;1049.60;;;;;;5055017;28;20040;-59
2021/05/30 08:59:27;;;;;;;3.28;1.80;;;589.00;1075.20;;;;;;5055188;28;20032;-59
2021/05/30 09:01:53;;;;;;;2.45;1.83;;;588.80;1049.60;;;;;;5055023;28;20032;-59
2021/05/30 09:04:32;;;;;;;2.78;1.90;;;563.90;1075.20;;;;;;5054794;28;20037;-59
2021/05/30 09:06:58;;;;;;;2.35;1.75;;;563.70;1049.60;;;;;;5054885;28;20140;-59
2021/05/30 09:09:24;;;;;;;3.95;1.63;;;563.90;1075.20;;;;;;5055043;28;20502;-60
2021/05/30 09:11:54;;;;;;;2.30;1.65;;;564.00;1049.60;;;;;;5054763;28;20035;-59
2021/05/30 09:14:27;;;;;;;3.45;2.20;;;588.90;1049.60;;;;;;5054764;28;20470;-59
2021/05/30 09:17:02;;;;;;;3.55;2.00;;;589.20;1024.00;;;;;;5053984;28;20475;-59
2021/05/30 09:19:50;;;;;;;4.35;2.00;;;589.50;1024.00;;;;;;5054866;28;20021;-59
2021/05/30 09:22:34;;;;;;;4.93;1.98;;;614.40;998.40;;;;;;5054849;28;20033;-58
2021/05/30 09:25:00;;;;;;;2.15;1.70;;;614.80;998.40;;;;;;5054320;28;20480;-59
2021/05/30 09:27:28;;;;;;;2.70;2.00;;;614.70;972.80;;;;;;5054565;28;20043;-59
2021/05/30 09:30:23;;;;;;;2.28;1.95;;;614.60;972.80;;;;;;5054675;28;20025;-58
2021/05/30 09:33:13;;;;;;;2.40;1.70;;;589.60;998.40;;;;;;5051076;28;20059;-59
2021/05/30 09:35:44;;;;;;;2.45;2.00;;;589.10;1024.00;;;;;;5053764;28;20075;-58
2021/05/30 09:38:20;;;;;;;3.00;2.00;;;564.00;1075.20;;;;;;5053914;28;20032;-58
2021/05/30 09:40:52;;;;;;;3.75;1.90;;;563.90;1100.80;;;;;;5054294;28;20036;-59
2021/05/30 09:43:23;;;;;;;2.92;1.88;;;564.00;1075.20;;;;;;5054515;28;20025;-59
2021/05/30 09:45:58;;;;;;;3.72;2.00;;;588.90;1049.60;;;;;;5054169;28;20036;-59
2021/05/30 09:48:23;;;;;;;3.10;2.22;;;589.10;1024.00;;;;;;5053214;28;20048;-59
2021/05/30 09:51:05;;;;;;;3.10;2.10;;;589.50;1049.60;;;;;;5054214;28;20466;-59
2021/05/30 09:53:41;;;;;;;3.20;2.25;;;589.60;998.40;;;;;;5036072;28;20021;-59
2021/05/30 09:56:26;;;;;;;3.70;2.65;;;614.50;972.80;;;;;;5053898;28;20051;-59
2021/05/30 09:58:52;;;;;;;4.70;2.63;;;614.70;998.40;;;;;;5054070;28;20078;-58
2021/05/30 10:01:18;;;;;;;4.25;2.40;;;614.60;972.80;;;;;;5053915;28;20028;-58
2021/05/30 10:03:43;;;;;;;3.85;2.40;;;614.40;972.80;;;;;;5054161;28;20025;-59
2021/05/30 10:06:09;;;;;;;3.13;2.10;;;589.60;972.80;;;;;;5053759;28;20035;-58
2021/05/30 10:08:35;;;;;;;3.03;1.90;;;614.40;1024.00;;;;;;5053858;28;20112;-58
2021/05/30 10:11:01;;;;;;;4.80;2.03;;;614.40;1024.00;;;;;;5054039;28;20381;-58
2021/05/30 10:13:28;;;;;;;3.42;1.77;;;614.70;972.80;;;;;;5053765;28;20104;-59
2021/05/30 10:15:54;;;;;;;2.95;2.00;;;614.90;998.40;;;;;;5053849;28;20025;-59
2021/05/30 10:18:26;;;;;;;2.83;2.05;;;614.90;947.20;;;;;;5035391;28;20492;-59
2021/05/30 10:20:53;;;;;;;2.40;1.80;;;615.00;972.80;;;;;;5053827;28;20041;-59
2021/05/30 10:23:21;;;;;;;3.30;2.50;;;614.90;921.60;;;;;;5053532;28;20536;-59
2021/05/30 10:25:47;;;;;;;3.03;1.83;;;614.90;947.20;;;;;;5053482;28;20030;-58
2021/05/30 10:28:21;;;;;;;3.75;2.00;;;614.80;947.20;;;;;;5053757;28;20036;-59
2021/05/30 10:31:16;;;;;;;3.95;2.10;;;614.70;947.20;;;;;;5053521;28;20033;-58
2021/05/30 10:34:03;;;;;;;4.13;2.70;;;614.50;947.20;;;;;;5035594;28;20116;-59
2021/05/30 10:36:28;;;;;;;3.72;2.63;;;614.40;947.20;;;;;;5053231;28;20383;-59
2021/05/30 10:38:54;;;;;;;3.17;2.20;;;589.60;998.40;;;;;;5053684;28;20029;-59
2021/05/30 10:41:23;;;;;;;2.72;2.03;;;589.60;998.40;;;;;;5053402;28;20482;-59
2021/05/30 10:43:50;;;;;;;3.88;2.17;;;589.40;1024.00;;;;;;5053435;28;20420;-59
2021/05/30 10:46:18;;;;;;;2.67;2.10;;;589.60;998.40;;;;;;5052961;28;20037;-58
2021/05/30 10:49:05;;;;;;;3.15;2.22;;;614.50;998.40;;;;;;5053307;28;20014;-58
2021/05/30 10:51:42;;;;;;;3.33;2.10;;;614.70;972.80;;;;;;5053295;28;20025;-59
2021/05/30 10:54:11;;;;;;;2.92;2.20;;;614.90;972.80;;;;;;5053490;28;20387;-60
2021/05/30 10:56:46;;;;;;;2.65;2.25;;;615.30;947.20;;;;;;5035523;28;20017;-58
2021/05/30 10:59:15;;;;;;;2.40;1.90;;;640.10;896.00;;;;;;5054758;28;20033;-59
2021/05/30 11:01:44;;;;;;;3.05;2.10;;;615.20;896.00;;;;;;5057284;28;20036;-59
2021/05/30 11:04:25;;;;;;;4.60;2.10;;;640.00;896.00;;;;;;5057384;28;20024;-59
2021/05/30 11:07:01;;;;;;;2.50;1.98;;;640.20;870.40;;;;;;5039240;28;20036;-59
2021/05/30 11:09:50;;;;;;;3.20;2.10;;;640.60;819.20;;;;;;5057372;28;20379;-59
2021/05/30 11:12:44;;;;;;;3.45;1.98;;;665.80;870.40;;;;;;4976268;28;20122;-59
2021/05/30 11:17:39;;;;;;;3.70;2.20;;;691.20;793.60;;;;;;4956908;29;20023;-58
2021/05/30 11:20:06;;;;;;;2.53;2.03;;;691.40;768.00;;;;;;4956667;29;20453;-59
2021/05/30 11:22:52;;;;;;;3.42;1.90;;;691.70;742.40;;;;;;4956708;28;20097;-59
2021/05/30 11:25:39;;;;;;;2.35;1.98;;;691.70;768.00;;;;;;4965517;28;20039;-61
2021/05/30 11:28:16;;;;;;;3.47;2.25;;;691.70;768.00;;;;;;4970423;28;20034;-61
2021/05/30 11:30:46;;;;;;;2.88;2.20;;;691.30;768.00;;;;;;4963793;28;20163;-61
2021/05/30 11:33:21;;;;;;;2.88;2.13;;;691.20;742.40;;;;;;4956256;29;20048;-61
2021/05/30 11:35:49;;;;;;;2.90;2.10;;;691.60;768.00;;;;;;4955962;29;20047;-60
2021/05/30 11:38:15;;;;;;;4.57;2.40;;;691.70;768.00;;;;;;4956026;29;20043;-61
2021/05/30 11:40:40;;;;;;;2.67;2.10;;;691.70;768.00;;;;;;4956073;29;20051;-61
2021/05/30 11:43:13;;;;;;;3.45;2.00;;;691.70;768.00;;;;;;4955789;29;20043;-60
2021/05/30 11:45:41;;;;;;;2.80;2.13;;;692.00;768.00;;;;;;4955887;29;20626;-60
2021/05/30 11:48:13;;;;;;;3.08;2.13;;;692.00;742.40;;;;;;4958084;28;20125;-58
2021/05/30 11:50:52;;;;;;;2.83;2.00;;;691.80;768.00;;;;;;5016601;28;20021;-59
2021/05/30 11:53:30;;;;;;;4.18;2.30;;;691.50;793.60;;;;;;5016341;28;20048;-58
2021/05/30 11:55:59;;;;;;;3.88;2.13;;;691.20;819.20;;;;;;5016671;28;20399;-59
2021/05/30 11:58:27;;;;;;;3.95;2.10;;;666.30;870.40;;;;;;5016425;28;20049;-59
2021/05/30 12:01:01;;;;;;;5.70;1.95;;;691.40;844.80;;;;;;5016579;28;20041;-59
2021/05/30 12:03:27;;;;;;;10.43;1.80;;;666.50;844.80;;;;;;5016284;28;20033;-59
2021/05/30 12:06:03;;;;;;;120.57;4.32;;;665.60;844.80;;;;;;5016236;28;20026;-58
2021/05/30 12:08:30;;;;;;;5.05;1.42;;;665.70;819.20;;;;;;4998713;28;20038;-59
2021/05/30 12:11:01;;;;;;;6.40;1.40;;;665.70;793.60;;;;;;5015554;28;20165;-58
2021/05/30 12:13:35;;;;;;;1.85;1.30;;;665.60;819.20;;;;;;5016199;28;20029;-58
2021/05/30 12:16:18;;;;;;;3.65;1.33;;;640.80;768.00;;;;;;5016126;28;20498;-59
2021/05/30 12:18:59;;;;;;;23.58;2.58;;;640.50;793.60;;;;;;5015990;28;20506;-58
2021/05/30 12:21:36;;;;;;;5.57;2.15;;;640.40;768.00;;;;;;5016102;28;20049;-59
2021/05/30 12:24:02;;;;;;;22.50;10.02;;;640.40;819.20;;;;;;5016200;28;20026;-59
2021/05/30 12:26:28;;;;;;;25.55;4.03;;;640.40;768.00;;;;;;5016176;28;20115;-59